createdAt,value
2022-12-12T00:02:23.218Z,19.30
2022-12-12T00:04:50.192Z,19.30
2022-12-12T00:07:16.969Z,19.30
2022-12-12T00:09:43.776Z,19.30
2022-12-12T00:12:10.514Z,19.30
2022-12-12T00:14:37.279Z,19.30
2022-12-12T00:17:05.468Z,19.30
2022-12-12T00:19:32.219Z,19.30
2022-12-12T00:21:59.328Z,19.40
2022-12-12T00:24:26.118Z,19.40
2022-12-12T00:26:52.843Z,19.40
2022-12-12T00:29:19.619Z,19.40
2022-12-12T00:31:46.360Z,19.40
2022-12-12T00:34:13.432Z,19.40
2022-12-12T00:36:40.215Z,19.30
2022-12-12T00:39:07.001Z,19.40
2022-12-12T00:41:33.845Z,19.40
2022-12-12T00:44:00.723Z,19.40
2022-12-12T00:46:27.558Z,19.40
2022-12-12T00:48:56.765Z,19.40
2022-12-12T00:51:26.027Z,19.40
2022-12-12T00:53:53.442Z,19.40
2022-12-12T00:56:22.441Z,19.40
2022-12-12T00:58:50.082Z,19.40
2022-12-12T01:01:20.645Z,19.40
2022-12-12T01:03:48.050Z,19.40
2022-12-12T01:06:15.837Z,19.40
2022-12-12T01:08:42.834Z,19.40
2022-12-12T01:11:11.254Z,19.40
2022-12-12T01:13:38.657Z,19.40
2022-12-12T01:16:06.412Z,19.40
2022-12-12T01:18:33.556Z,19.40
2022-12-12T01:21:00.872Z,19.40
2022-12-12T01:23:27.732Z,19.40
2022-12-12T01:26:24.681Z,19.40
2022-12-12T01:28:51.980Z,19.40
2022-12-12T01:31:19.163Z,19.30
2022-12-12T01:33:46.406Z,19.30
2022-12-12T01:36:19.670Z,19.30
2022-12-12T01:38:48.347Z,19.30
2022-12-12T01:41:16.294Z,19.20
2022-12-12T01:43:43.654Z,19.20
2022-12-12T01:46:22.675Z,19.20
2022-12-12T01:48:53.655Z,19.10
2022-12-12T01:51:24.186Z,19.10
2022-12-12T01:53:54.722Z,19.10
2022-12-12T01:56:21.774Z,19.10
2022-12-12T01:58:51.324Z,19.10
2022-12-12T02:01:20.084Z,19.10
2022-12-12T02:03:48.464Z,19.10
2022-12-12T02:06:23.121Z,19.10
2022-12-12T02:08:52.950Z,19.20
2022-12-12T02:11:21.653Z,19.20
2022-12-12T02:13:49.288Z,19.20
2022-12-12T02:16:23.778Z,19.30
2022-12-12T02:19:11.042Z,19.30
2022-12-12T02:21:37.760Z,19.40
2022-12-12T02:24:25.787Z,19.40
2022-12-12T02:27:20.540Z,19.40
2022-12-12T02:30:11.860Z,19.40
2022-12-12T02:32:52.043Z,19.40
2022-12-12T02:35:50.935Z,19.40
2022-12-12T02:38:29.614Z,19.40
2022-12-12T02:41:04.597Z,19.40
2022-12-12T02:44:01.478Z,19.40
2022-12-12T02:46:34.328Z,19.50
2022-12-12T02:49:09.897Z,19.50
2022-12-12T02:51:39.240Z,19.50
2022-12-12T02:54:13.943Z,19.50
2022-12-12T02:56:46.245Z,19.50
2022-12-12T02:59:25.861Z,19.50
2022-12-12T03:02:29.929Z,19.50
2022-12-12T03:05:27.998Z,19.50
2022-12-12T03:08:29.497Z,19.40
2022-12-12T03:11:07.973Z,19.40
2022-12-12T03:13:37.785Z,19.30
2022-12-12T03:16:19.215Z,19.30
2022-12-12T03:18:53.596Z,19.30
2022-12-12T03:21:39.734Z,19.40
2022-12-12T03:24:22.647Z,19.40
2022-12-12T03:26:54.532Z,19.40
2022-12-12T03:29:27.931Z,19.40
2022-12-12T03:32:00.484Z,19.50
2022-12-12T03:34:37.401Z,19.50
2022-12-12T03:37:24.864Z,19.50
2022-12-12T03:40:16.405Z,19.50
2022-12-12T03:43:04.798Z,19.50
2022-12-12T03:45:40.869Z,19.50
2022-12-12T03:48:15.715Z,19.50
2022-12-12T03:50:54.087Z,19.40
2022-12-12T03:53:48.505Z,19.50
2022-12-12T03:56:18.251Z,19.50
2022-12-12T03:58:45.015Z,19.50
2022-12-12T04:01:14.032Z,19.50
2022-12-12T04:04:01.389Z,19.60
2022-12-12T04:06:48.396Z,19.60
2022-12-12T04:09:46.911Z,19.60
2022-12-12T04:12:54.828Z,19.60
2022-12-12T04:15:47.410Z,19.70
2022-12-12T04:18:17.212Z,19.60
2022-12-12T04:21:32.217Z,19.60
2022-12-12T04:24:24.615Z,19.60
2022-12-12T04:26:56.995Z,19.60
2022-12-12T04:29:48.399Z,19.50
2022-12-12T04:32:21.555Z,19.40
2022-12-12T04:35:14.104Z,19.40
2022-12-12T04:37:56.549Z,19.40
2022-12-12T04:40:31.031Z,19.40
2022-12-12T04:43:06.226Z,19.40
2022-12-12T04:45:46.895Z,19.50
2022-12-12T04:48:18.634Z,19.50
2022-12-12T04:50:49.226Z,19.50
2022-12-12T04:53:19.749Z,19.50
2022-12-12T04:55:55.132Z,19.50
2022-12-12T04:58:22.209Z,19.50
2022-12-12T05:01:04.035Z,19.40
2022-12-12T05:03:54.105Z,19.40
2022-12-12T05:06:27.300Z,19.40
2022-12-12T05:08:56.573Z,19.30
2022-12-12T05:11:23.680Z,19.30
2022-12-12T05:13:50.775Z,19.20
2022-12-12T05:16:22.530Z,19.20
2022-12-12T05:18:49.643Z,19.20
2022-12-12T05:21:16.543Z,19.20
2022-12-12T05:23:43.469Z,19.20
2022-12-12T05:26:18.809Z,19.20
2022-12-12T05:28:45.647Z,19.20
2022-12-12T05:31:12.461Z,19.20
2022-12-12T05:33:39.953Z,19.20
2022-12-12T05:36:07.142Z,19.30
2022-12-12T05:38:34.331Z,19.30
2022-12-12T05:41:01.216Z,19.30
2022-12-12T05:43:28.232Z,19.30
2022-12-12T05:45:55.152Z,19.20
2022-12-12T05:48:24.538Z,19.20
2022-12-12T05:50:52.865Z,19.20
2022-12-12T05:53:20.130Z,19.10
2022-12-12T05:55:48.774Z,19.10
2022-12-12T05:58:15.560Z,19.10
2022-12-12T06:00:42.343Z,19.10
2022-12-12T06:03:09.121Z,19.10
2022-12-12T06:05:36.166Z,19.10
2022-12-12T06:08:03.031Z,19.10
2022-12-12T06:10:30.464Z,19.20
2022-12-12T06:12:57.282Z,19.20
2022-12-12T06:15:24.176Z,19.20
2022-12-12T06:17:53.887Z,19.20
2022-12-12T06:20:21.050Z,19.20
2022-12-12T06:22:52.104Z,19.20
2022-12-12T06:25:20.809Z,19.20
2022-12-12T06:27:47.791Z,19.20
2022-12-12T06:30:14.963Z,19.20
2022-12-12T06:32:42.647Z,19.10
2022-12-12T06:35:11.425Z,19.10
2022-12-12T06:37:40.267Z,19.10
2022-12-12T06:40:08.207Z,19.10
2022-12-12T06:42:35.120Z,19.10
2022-12-12T06:45:01.999Z,19.10
2022-12-12T06:47:29.337Z,19.10
2022-12-12T06:49:57.551Z,19.10
2022-12-12T06:52:24.551Z,19.20
2022-12-12T06:54:51.559Z,19.20
2022-12-12T06:57:18.332Z,19.20
2022-12-12T06:59:45.194Z,19.20
2022-12-12T07:02:12.291Z,19.20
2022-12-12T07:04:39.254Z,19.20
2022-12-12T07:07:06.366Z,19.10
2022-12-12T07:09:33.488Z,19.10
2022-12-12T07:12:00.335Z,19.00
2022-12-12T07:14:27.215Z,19.00
2022-12-12T07:16:54.100Z,19.00
2022-12-12T07:19:22.654Z,19.00
2022-12-12T07:21:49.722Z,19.00
2022-12-12T07:24:18.037Z,19.00
2022-12-12T07:26:45.096Z,19.00
2022-12-12T07:29:12.361Z,19.00
2022-12-12T07:31:39.369Z,19.00
2022-12-12T07:34:06.324Z,19.10
2022-12-12T07:36:33.366Z,19.10
2022-12-12T07:39:00.374Z,19.20
2022-12-12T07:41:27.234Z,19.20
2022-12-12T07:43:54.057Z,19.20
2022-12-12T07:46:24.089Z,19.10
2022-12-12T07:48:52.591Z,19.20
2022-12-12T07:51:19.709Z,19.20
2022-12-12T07:53:46.874Z,19.10
2022-12-12T07:56:15.986Z,19.10
2022-12-12T07:58:42.777Z,19.10
2022-12-12T08:01:21.875Z,19.10
2022-12-12T08:03:50.575Z,19.10
2022-12-12T08:06:18.972Z,19.10
2022-12-12T08:08:47.096Z,19.10
2022-12-12T08:11:17.354Z,19.10
2022-12-12T08:13:44.545Z,19.10
2022-12-12T08:16:26.456Z,19.20
2022-12-12T08:18:57.623Z,19.20
2022-12-12T08:21:26.525Z,19.20
2022-12-12T08:24:02.136Z,19.20
2022-12-12T08:26:30.226Z,19.20
2022-12-12T08:28:58.148Z,19.20
2022-12-12T08:31:25.941Z,19.20
2022-12-12T08:33:55.506Z,19.10
2022-12-12T08:36:30.214Z,19.10
2022-12-12T08:38:58.684Z,19.00
2022-12-12T08:41:25.468Z,19.00
2022-12-12T08:43:52.215Z,19.00
2022-12-12T08:46:20.220Z,18.90
2022-12-12T08:48:48.580Z,19.00
2022-12-12T08:51:16.850Z,19.00
2022-12-12T08:53:45.797Z,19.00
2022-12-12T08:56:12.831Z,19.00
2022-12-12T08:58:39.778Z,19.10
2022-12-12T09:01:15.252Z,19.10
2022-12-12T09:03:42.125Z,19.10
2022-12-12T09:06:10.380Z,19.10
2022-12-12T09:08:38.493Z,19.10
2022-12-12T09:11:05.691Z,19.10
2022-12-12T09:13:32.913Z,19.00
2022-12-12T09:16:00.113Z,19.00
2022-12-12T09:18:27.197Z,19.00
2022-12-12T09:20:56.201Z,19.00
2022-12-12T09:23:24.495Z,19.00
2022-12-12T09:25:52.086Z,19.00
2022-12-12T09:28:20.928Z,19.00
2022-12-12T09:30:48.252Z,19.10
2022-12-12T09:33:17.400Z,19.10
2022-12-12T09:35:44.580Z,19.10
2022-12-12T09:38:14.719Z,19.20
2022-12-12T09:41:01.259Z,19.20
2022-12-12T09:43:33.138Z,19.20
2022-12-12T09:46:01.456Z,19.30
2022-12-12T09:48:40.840Z,19.30
2022-12-12T09:51:09.493Z,19.40
2022-12-12T09:53:37.413Z,19.40
2022-12-12T09:56:21.763Z,19.40
2022-12-12T09:58:56.701Z,19.40
2022-12-12T10:01:46.392Z,19.50
2022-12-12T10:04:32.702Z,19.50
2022-12-12T10:07:10.129Z,19.50
2022-12-12T10:09:58.054Z,19.50
2022-12-12T10:12:26.096Z,19.50
2022-12-12T10:14:57.272Z,19.50
2022-12-12T10:17:29.825Z,19.60
2022-12-12T10:20:00.559Z,19.60
2022-12-12T10:23:02.745Z,19.70
2022-12-12T10:25:52.542Z,19.70
2022-12-12T10:28:23.356Z,19.80
2022-12-12T10:30:55.994Z,19.80
2022-12-12T10:33:41.266Z,19.90
2022-12-12T10:36:39.802Z,19.90
2022-12-12T10:39:39.577Z,19.90
2022-12-12T10:42:14.012Z,20.00
2022-12-12T10:44:58.331Z,20.00
2022-12-12T10:47:25.759Z,20.00
2022-12-12T10:50:02.855Z,20.10
2022-12-12T10:52:31.053Z,20.10
2022-12-12T10:54:59.281Z,20.20
2022-12-12T10:57:29.052Z,20.20
2022-12-12T10:59:58.432Z,20.20
2022-12-12T11:02:27.859Z,20.30
2022-12-12T11:05:22.107Z,20.30
2022-12-12T11:08:22.190Z,20.40
2022-12-12T11:11:25.172Z,20.40
2022-12-12T11:14:00.438Z,20.50
2022-12-12T11:16:39.326Z,20.50
2022-12-12T11:19:27.944Z,20.50
2022-12-12T11:22:02.561Z,20.50
2022-12-12T11:24:34.061Z,20.50
2022-12-12T11:27:07.265Z,20.60
2022-12-12T11:29:48.833Z,20.60
2022-12-12T11:32:26.984Z,20.60
2022-12-12T11:34:58.162Z,20.60
2022-12-12T11:37:29.115Z,20.60
2022-12-12T11:39:57.345Z,20.60
2022-12-12T11:42:29.687Z,20.60
2022-12-12T11:45:02.465Z,20.50
2022-12-12T11:47:38.821Z,20.50
2022-12-12T11:50:28.793Z,20.40
2022-12-12T11:53:00.482Z,20.50
2022-12-12T11:55:54.648Z,20.40
2022-12-12T11:58:57.045Z,20.50
2022-12-12T12:01:34.437Z,20.50
2022-12-12T12:04:12.507Z,20.50
2022-12-12T12:07:09.475Z,20.60
2022-12-12T12:09:54.773Z,20.60
2022-12-12T12:12:42.457Z,20.60
2022-12-12T12:15:21.309Z,20.70
2022-12-12T12:18:19.828Z,20.70
2022-12-12T12:21:27.353Z,20.70
2022-12-12T12:23:54.292Z,20.70
2022-12-12T12:27:01.805Z,20.70
2022-12-12T12:29:48.961Z,20.80
2022-12-12T12:32:48.771Z,20.80
2022-12-12T12:35:31.847Z,20.80
2022-12-12T12:38:36.188Z,20.80
2022-12-12T12:41:40.366Z,20.80
2022-12-12T12:44:31.427Z,20.90
2022-12-12T12:47:26.591Z,20.90
2022-12-12T12:50:16.213Z,21.00
2022-12-12T12:53:00.187Z,21.00
2022-12-12T12:55:34.453Z,21.00
2022-12-12T12:58:04.709Z,21.00
2022-12-12T13:00:31.811Z,21.10
2022-12-12T13:03:19.031Z,21.00
2022-12-12T13:05:51.139Z,21.00
2022-12-12T13:08:26.796Z,21.00
2022-12-12T13:11:03.282Z,21.00
2022-12-12T13:13:34.204Z,21.00
2022-12-12T13:16:19.718Z,21.00
2022-12-12T13:18:54.443Z,21.10
2022-12-12T13:21:48.632Z,21.10
2022-12-12T13:24:25.076Z,21.10
2022-12-12T13:27:22.469Z,21.10
2022-12-12T13:30:02.814Z,21.10
2022-12-12T13:32:47.459Z,21.20
2022-12-12T13:35:18.125Z,21.20
2022-12-12T13:37:49.116Z,21.20
2022-12-12T13:40:27.593Z,21.20
2022-12-12T13:43:09.661Z,21.10
2022-12-12T13:45:45.473Z,21.10
2022-12-12T13:48:27.626Z,21.10
2022-12-12T13:51:28.736Z,21.00
2022-12-12T13:54:13.249Z,21.00
2022-12-12T13:56:57.775Z,20.90
2022-12-12T13:59:30.625Z,20.90
2022-12-12T14:02:19.114Z,20.80
2022-12-12T14:04:46.623Z,20.90
2022-12-12T14:07:13.338Z,20.80
2022-12-12T14:09:48.996Z,20.80
2022-12-12T14:12:29.135Z,20.80
2022-12-12T14:15:08.129Z,20.80
2022-12-12T14:17:42.550Z,20.90
2022-12-12T14:20:29.987Z,20.90
2022-12-12T14:23:07.542Z,20.80
2022-12-12T14:25:37.760Z,20.80
2022-12-12T14:28:26.406Z,20.80
2022-12-12T14:31:16.552Z,20.80
2022-12-12T14:33:54.331Z,20.80
2022-12-12T14:36:37.587Z,20.80
2022-12-12T14:39:20.682Z,20.80
2022-12-12T14:41:48.227Z,20.80
2022-12-12T14:44:37.599Z,20.90
2022-12-12T14:47:09.644Z,20.90
2022-12-12T14:49:39.545Z,20.90
2022-12-12T14:52:06.385Z,20.90
2022-12-12T14:54:33.225Z,20.90
2022-12-12T14:57:01.372Z,20.90
2022-12-12T14:59:34.875Z,20.80
2022-12-12T15:02:17.442Z,20.80
2022-12-12T15:04:49.046Z,20.70
2022-12-12T15:07:27.114Z,20.70
2022-12-12T15:09:54.117Z,20.70
2022-12-12T15:12:24.906Z,20.70
2022-12-12T15:14:54.671Z,20.70
2022-12-12T15:17:33.063Z,20.60
2022-12-12T15:20:04.716Z,20.60
2022-12-12T15:22:37.860Z,20.60
2022-12-12T15:25:16.150Z,20.60
2022-12-12T15:27:53.719Z,20.50
2022-12-12T15:30:42.399Z,20.50
2022-12-12T15:33:26.936Z,20.50
2022-12-12T15:36:01.530Z,20.50
2022-12-12T15:38:30.398Z,20.50
2022-12-12T15:41:05.405Z,20.50
2022-12-12T15:43:35.480Z,20.50
2022-12-12T15:46:13.845Z,20.50
2022-12-12T15:48:45.394Z,20.60
2022-12-12T15:51:13.684Z,20.60
2022-12-12T15:53:46.988Z,20.60
2022-12-12T15:56:27.759Z,20.70
2022-12-12T15:59:04.032Z,20.70
2022-12-12T16:01:30.881Z,20.70
2022-12-12T16:04:02.473Z,20.70
2022-12-12T16:06:41.373Z,20.70
2022-12-12T16:09:11.046Z,20.70
2022-12-12T16:11:45.808Z,20.70
2022-12-12T16:14:26.487Z,20.70
2022-12-12T16:16:59.684Z,20.70
2022-12-12T16:19:38.451Z,20.70
2022-12-12T16:22:33.426Z,20.70
2022-12-12T16:25:25.678Z,20.70
2022-12-12T16:27:58.668Z,20.80
2022-12-12T16:30:26.857Z,20.80
2022-12-12T16:32:54.028Z,20.80
2022-12-12T16:35:23.384Z,20.70
2022-12-12T16:37:51.233Z,20.70
2022-12-12T16:40:19.583Z,20.70
2022-12-12T16:42:55.997Z,20.70
2022-12-12T16:45:22.901Z,20.70
2022-12-12T16:47:49.713Z,20.60
2022-12-12T16:50:16.681Z,20.60
2022-12-12T16:52:45.128Z,20.60
2022-12-12T16:55:22.079Z,20.60
2022-12-12T16:57:49.095Z,20.60
2022-12-12T17:00:16.988Z,20.60
2022-12-12T17:02:44.248Z,20.60
2022-12-12T17:05:17.771Z,20.60
2022-12-12T17:07:44.727Z,20.60
2022-12-12T17:10:11.969Z,20.50
2022-12-12T17:12:39.420Z,20.50
2022-12-12T17:15:06.942Z,20.40
2022-12-12T17:17:33.712Z,20.40
2022-12-12T17:20:00.455Z,20.30
2022-12-12T17:22:27.258Z,20.30
2022-12-12T17:24:54.001Z,20.30
2022-12-12T17:27:20.864Z,20.30
2022-12-12T17:29:47.647Z,20.30
2022-12-12T17:32:14.426Z,20.30
2022-12-12T17:34:41.304Z,20.20
2022-12-12T17:37:08.071Z,20.30
2022-12-12T17:39:34.820Z,20.30
2022-12-12T17:42:01.570Z,20.30
2022-12-12T17:44:28.677Z,20.20
2022-12-12T17:46:55.509Z,20.20
2022-12-12T17:49:22.304Z,20.20
2022-12-12T17:51:49.088Z,20.20
2022-12-12T17:54:15.970Z,20.20
2022-12-12T17:56:42.779Z,20.10
2022-12-12T17:59:09.679Z,20.10
2022-12-12T18:01:36.736Z,20.10
2022-12-12T18:04:04.453Z,20.20
2022-12-12T18:06:33.557Z,20.10
2022-12-12T18:09:00.992Z,20.20
2022-12-12T18:11:31.392Z,20.20
2022-12-12T18:14:00.493Z,20.20
2022-12-12T18:16:30.524Z,20.20
2022-12-12T18:18:58.069Z,20.20
2022-12-12T18:21:58.961Z,20.20
2022-12-12T18:24:16.056Z,20.30
2022-12-12T18:26:42.888Z,20.30
2022-12-12T18:29:12.624Z,20.30
2022-12-12T18:31:39.935Z,20.30
2022-12-12T18:34:06.842Z,20.30
2022-12-12T18:36:33.611Z,20.30
2022-12-12T18:39:02.385Z,20.20
2022-12-12T18:41:31.571Z,20.20
2022-12-12T18:43:59.123Z,20.20
2022-12-12T18:46:27.628Z,20.20
2022-12-12T18:48:54.622Z,20.10
2022-12-12T18:51:24.128Z,20.10
2022-12-12T18:53:53.206Z,20.10
2022-12-12T18:56:21.592Z,20.10
2022-12-12T18:58:48.806Z,20.10
2022-12-12T19:01:18.973Z,20.10
2022-12-12T19:03:48.977Z,20.20
2022-12-12T19:06:22.469Z,20.20
2022-12-12T19:08:49.886Z,20.20
2022-12-12T19:11:17.250Z,20.20
2022-12-12T19:13:44.832Z,20.20
2022-12-12T19:16:18.558Z,20.30
2022-12-12T19:18:46.339Z,20.20
2022-12-12T19:21:19.218Z,20.20
2022-12-12T19:23:47.592Z,20.20
2022-12-12T19:26:27.916Z,20.20
2022-12-12T19:29:00.206Z,20.20
2022-12-12T19:31:27.477Z,20.20
2022-12-12T19:33:54.345Z,20.20
2022-12-12T19:36:26.174Z,20.20
2022-12-12T19:38:54.489Z,20.20
2022-12-12T19:41:23.472Z,20.10
2022-12-12T19:43:51.928Z,20.10
2022-12-12T19:46:23.893Z,20.10
2022-12-12T19:49:05.134Z,20.10
2022-12-12T19:51:32.874Z,20.10
2022-12-12T19:54:00.594Z,20.10
2022-12-12T19:56:30.602Z,20.10
2022-12-12T19:58:58.200Z,20.00
2022-12-12T20:01:30.054Z,20.10
2022-12-12T20:04:06.644Z,20.00
2022-12-12T20:06:41.222Z,20.00
2022-12-12T20:09:09.142Z,20.00
2022-12-12T20:11:36.924Z,20.00
2022-12-12T20:14:03.896Z,20.00
2022-12-12T20:16:30.991Z,20.00
2022-12-12T20:18:58.867Z,19.90
2022-12-12T20:21:59.870Z,19.90
2022-12-12T20:24:18.465Z,19.90
2022-12-12T20:26:45.825Z,19.90
2022-12-12T20:29:15.483Z,19.90
2022-12-12T20:31:48.379Z,19.90
2022-12-12T20:34:16.909Z,19.80
2022-12-12T20:36:44.245Z,19.90
2022-12-12T20:39:16.102Z,19.80
2022-12-12T20:41:44.246Z,19.80
2022-12-12T20:44:12.664Z,19.80
2022-12-12T20:46:42.448Z,19.70
2022-12-12T20:49:12.491Z,19.70
2022-12-12T20:51:56.800Z,19.60
2022-12-12T20:54:25.607Z,19.60
2022-12-12T20:56:53.300Z,19.60
2022-12-12T20:59:20.269Z,19.50
2022-12-12T21:01:47.632Z,19.50
2022-12-12T21:04:15.151Z,19.50
2022-12-12T21:06:51.331Z,19.50
2022-12-12T21:09:24.341Z,19.50
2022-12-12T21:11:57.860Z,19.40
2022-12-12T21:14:26.931Z,19.40
2022-12-12T21:16:54.421Z,19.40
2022-12-12T21:19:23.117Z,19.40
2022-12-12T21:21:50.548Z,19.40
2022-12-12T21:24:18.684Z,19.40
2022-12-12T21:26:46.012Z,19.40
2022-12-12T21:29:13.867Z,19.40
2022-12-12T21:31:48.578Z,19.40
2022-12-12T21:34:18.149Z,19.40
2022-12-12T21:36:44.911Z,19.40
2022-12-12T21:39:12.564Z,19.30
2022-12-12T21:41:41.859Z,19.30
2022-12-12T21:44:09.128Z,19.20
2022-12-12T21:46:37.125Z,19.20
2022-12-12T21:49:22.420Z,19.20
2022-12-12T21:51:49.164Z,19.20
2022-12-12T21:54:16.495Z,19.10
2022-12-12T21:56:43.897Z,19.10
2022-12-12T21:59:12.266Z,19.10
2022-12-12T22:01:39.986Z,19.10
2022-12-12T22:04:07.388Z,19.10
2022-12-12T22:06:36.230Z,19.10
2022-12-12T22:09:06.458Z,19.00
2022-12-12T22:11:47.601Z,19.00
2022-12-12T22:14:17.171Z,19.00
2022-12-12T22:16:43.969Z,19.00
2022-12-12T22:19:12.784Z,19.00
2022-12-12T22:21:39.897Z,18.90
2022-12-12T22:24:07.089Z,18.90
2022-12-12T22:26:37.177Z,18.90
2022-12-12T22:29:11.961Z,18.90
2022-12-12T22:31:39.723Z,19.00
2022-12-12T22:34:11.405Z,18.90
2022-12-12T22:36:39.196Z,18.90
2022-12-12T22:39:08.120Z,18.90
2022-12-12T22:41:35.108Z,18.90
2022-12-12T22:44:03.959Z,18.90
2022-12-12T22:46:31.528Z,18.90
2022-12-12T22:49:00.600Z,18.80
2022-12-12T22:51:30.872Z,18.80
2022-12-12T22:53:59.115Z,18.80
2022-12-12T22:56:28.422Z,18.80
2022-12-12T22:58:55.561Z,18.80
2022-12-12T23:01:24.393Z,18.80
2022-12-12T23:03:51.971Z,18.80
2022-12-12T23:06:21.478Z,18.80
2022-12-12T23:08:57.006Z,18.80
2022-12-12T23:11:25.971Z,18.80
2022-12-12T23:14:00.176Z,18.80
2022-12-12T23:16:31.087Z,18.70
2022-12-12T23:18:59.036Z,18.70
2022-12-12T23:21:26.736Z,18.70
2022-12-12T23:23:55.313Z,18.70
2022-12-12T23:26:26.007Z,18.70
2022-12-12T23:28:53.224Z,18.70
2022-12-12T23:31:23.304Z,18.70
2022-12-12T23:33:55.615Z,18.60
2022-12-12T23:36:23.259Z,18.70
2022-12-12T23:38:57.743Z,18.60
2022-12-12T23:41:26.120Z,18.70
2022-12-12T23:43:53.748Z,18.70
2022-12-12T23:46:31.800Z,18.70
2022-12-12T23:49:01.715Z,18.60
2022-12-12T23:51:31.101Z,18.70
2022-12-12T23:53:59.144Z,18.70
2022-12-12T23:56:26.911Z,18.70
2022-12-12T23:58:55.043Z,18.70
